Time,TemperatureF,DewpointF,PressureIn,WindDirection,WindDirectionDegrees,WindSpeedMPH,WindSpeedGustMPH,Humidity,HourlyPrecipIn,Conditions,Clouds,dailyrainin,SoftwareType,DateUTC
2013-08-22 00:14:00,74.0,72.0,30.17,East,94,0.0,0.0,95,0.00,,,0.01,,2013-08-22 04:14:00,
2013-08-22 00:23:00,74.0,72.0,30.16,East,94,0.0,0.0,95,0.00,,,0.01,,2013-08-22 04:23:00,
2013-08-22 00:54:00,73.0,72.0,30.16,East,94,0.0,0.0,96,0.00,,,0.01,,2013-08-22 04:54:00,
2013-08-22 01:13:00,73.0,72.0,30.16,East,94,0.0,0.0,96,0.00,,,0.01,,2013-08-22 05:13:00,
2013-08-22 01:22:00,72.0,71.0,30.16,East,94,0.0,0.0,97,0.00,,,0.01,,2013-08-22 05:22:00,
2013-08-22 01:43:00,72.0,71.0,30.16,East,94,0.0,0.0,97,0.00,,,0.01,,2013-08-22 05:43:00,
2013-08-22 01:53:00,72.0,71.0,30.16,East,93,0.0,0.0,97,0.00,,,0.01,,2013-08-22 05:53:00,
2013-08-22 02:12:00,72.0,71.0,30.17,East,94,0.0,0.0,97,0.00,,,0.01,,2013-08-22 06:12:00,
2013-08-22 02:22:00,72.0,71.0,30.17,East,93,0.0,0.0,97,0.00,,,0.01,,2013-08-22 06:22:00,
2013-08-22 02:42:00,72.0,71.0,30.16,East,94,0.0,0.0,97,0.00,,,0.01,,2013-08-22 06:42:00,
2013-08-22 02:52:00,71.0,70.0,30.16,East,94,0.0,0.0,97,0.00,,,0.01,,2013-08-22 06:52:00,
2013-08-22 03:12:00,71.0,70.0,30.16,East,96,0.0,0.0,97,0.00,,,0.01,,2013-08-22 07:12:00,
2013-08-22 03:22:00,71.0,70.0,30.16,East,96,0.0,0.0,97,0.00,,,0.00,,2013-08-22 07:22:00,
2013-08-22 03:42:00,71.0,70.0,30.16,East,96,0.0,0.0,97,0.00,,,0.00,,2013-08-22 07:42:00,
2013-08-22 03:53:00,71.0,70.0,30.16,East,96,0.0,0.0,97,0.00,,,0.00,,2013-08-22 07:53:00,
2013-08-22 04:12:00,70.0,69.0,30.15,East,96,0.0,0.0,97,0.00,,,0.00,,2013-08-22 08:12:00,
2013-08-22 04:22:00,70.0,69.0,30.15,East,96,0.0,0.0,98,0.00,,,0.00,,2013-08-22 08:22:00,
2013-08-22 04:53:00,70.0,69.0,30.14,East,96,0.0,0.0,98,0.00,,,0.00,,2013-08-22 08:53:00,
2013-08-22 05:11:00,70.0,69.0,30.14,East,96,0.0,0.0,98,0.00,,,0.00,,2013-08-22 09:11:00,
2013-08-22 05:22:00,70.0,69.0,30.14,East,96,0.0,0.0,98,0.00,,,0.00,,2013-08-22 09:22:00,
2013-08-22 05:54:00,70.0,69.0,30.14,East,96,0.0,0.0,98,0.00,,,0.00,,2013-08-22 09:54:00,
2013-08-22 06:12:00,70.0,69.0,30.15,East,96,0.0,0.0,98,0.00,,,0.00,,2013-08-22 10:12:00,
2013-08-22 06:23:00,70.0,69.0,30.15,East,96,0.0,0.0,98,0.00,,,0.00,,2013-08-22 10:23:00,
2013-08-22 06:30:00,70.0,69.0,30.15,East,96,0.0,0.0,98,0.00,,,0.00,,2013-08-22 10:30:00,
2013-08-22 06:42:00,70.0,69.0,30.15,East,96,0.0,0.0,98,0.00,,,0.00,,2013-08-22 10:42:00,
2013-08-22 08:52:00,73.0,72.0,30.16,East,96,0.0,0.0,98,0.00,,,0.00,,2013-08-22 12:52:00,
2013-08-22 09:12:00,75.0,74.0,30.16,SSE,160,0.0,0.0,98,0.00,,,0.00,,2013-08-22 13:12:00,
2013-08-22 09:22:00,75.0,74.0,30.16,SSE,161,0.0,0.0,97,0.00,,,0.00,,2013-08-22 13:22:00,
2013-08-22 09:52:00,80.0,77.0,30.17,WNW,283,0.0,1.0,91,0.00,,,0.00,,2013-08-22 13:52:00,
2013-08-22 10:11:00,81.0,77.0,30.16,WSW,250,1.0,3.0,88,0.00,,,0.00,,2013-08-22 14:11:00,
2013-08-22 10:22:00,82.0,77.0,30.16,East,98,0.0,3.0,86,0.00,,,0.00,,2013-08-22 14:22:00,
2013-08-22 10:52:00,82.0,78.0,30.16,East,87,0.0,1.0,88,0.00,,,0.00,,2013-08-22 14:52:00,
2013-08-22 11:12:00,82.0,77.0,30.16,WSW,253,0.0,1.0,86,0.00,,,0.00,,2013-08-22 15:12:00,
2013-08-22 11:22:00,84.0,79.0,30.16,North,8,0.0,2.0,84,0.00,,,0.00,,2013-08-22 15:22:00,
2013-08-22 11:55:00,87.0,78.0,30.15,NW,318,1.0,3.0,74,0.00,,,0.00,,2013-08-22 15:55:00,
2013-08-22 12:14:00,88.0,77.0,30.14,WSW,255,0.0,2.0,71,0.00,,,0.00,,2013-08-22 16:14:00,
2013-08-22 12:25:00,88.0,78.0,30.14,West,274,1.0,3.0,73,0.00,,,0.00,,2013-08-22 16:25:00,
2013-08-22 12:54:00,88.0,77.0,30.13,South,173,1.0,2.0,69,0.00,,,0.00,,2013-08-22 16:54:00,
2013-08-22 13:12:00,90.0,77.0,30.13,SSW,200,3.0,5.0,65,0.00,,,0.00,,2013-08-22 17:12:00,
2013-08-22 13:24:00,88.0,77.0,30.13,SE,146,1.0,2.0,71,0.00,,,0.00,,2013-08-22 17:24:00,
2013-08-22 13:43:00,89.0,77.0,30.11,SW,235,1.0,3.0,68,0.00,,,0.00,,2013-08-22 17:43:00,
2013-08-22 13:53:00,90.0,78.0,30.11,WNW,301,2.0,4.0,68,0.00,,,0.00,,2013-08-22 17:53:00,
2013-08-22 14:12:00,91.0,77.0,30.10,SW,214,1.0,2.0,64,0.00,,,0.00,,2013-08-22 18:12:00,
2013-08-22 14:22:00,92.0,77.0,30.09,East,97,1.0,4.0,62,0.00,,,0.00,,2013-08-22 18:22:00,
2013-08-22 14:43:00,93.0,77.0,30.09,SSE,148,1.0,2.0,60,0.00,,,0.00,,2013-08-22 18:43:00,
2013-08-22 14:52:00,90.0,76.0,30.08,NE,53,1.0,2.0,63,0.00,,,0.00,,2013-08-22 18:52:00,
2013-08-22 15:11:00,91.0,76.0,30.07,SSW,197,1.0,3.0,62,0.00,,,0.00,,2013-08-22 19:11:00,
2013-08-22 15:22:00,93.0,78.0,30.06,SW,229,0.0,2.0,61,0.00,,,0.00,,2013-08-22 19:22:00,
2013-08-22 15:53:00,92.0,76.0,30.04,SW,222,1.0,3.0,59,0.00,,,0.00,,2013-08-22 19:53:00,
2013-08-22 16:12:00,92.0,76.0,30.04,NNW,330,1.0,2.0,60,0.00,,,0.00,,2013-08-22 20:12:00,
2013-08-22 16:23:00,91.0,77.0,30.04,WSW,243,0.0,1.0,63,0.00,,,0.00,,2013-08-22 20:23:00,
2013-08-22 16:42:00,93.0,79.0,30.04,SSW,203,1.0,2.0,63,0.00,,,0.00,,2013-08-22 20:42:00,
2013-08-22 16:52:00,91.0,78.0,30.04,SW,231,0.0,1.0,66,0.00,,,0.00,,2013-08-22 20:52:00,
2013-08-22 17:13:00,87.0,78.0,30.04,ENE,60,1.0,3.0,74,0.00,,,0.00,,2013-08-22 21:13:00,
2013-08-22 17:22:00,85.0,77.0,30.03,ENE,71,1.0,2.0,77,0.00,,,0.00,,2013-08-22 21:22:00,
2013-08-22 17:44:00,87.0,78.0,30.03,East,90,1.0,1.0,76,0.00,,,0.00,,2013-08-22 21:44:00,
2013-08-22 17:54:00,88.0,78.0,30.03,SW,231,1.0,3.0,72,0.00,,,0.00,,2013-08-22 21:54:00,
2013-08-22 18:13:00,87.0,77.0,30.03,West,269,1.0,3.0,73,0.00,,,0.00,,2013-08-22 22:13:00,
2013-08-22 18:25:00,85.0,77.0,30.04,NE,51,1.0,5.0,78,0.00,,,0.00,,2013-08-22 22:25:00,
2013-08-22 18:42:00,84.0,77.0,30.04,East,91,0.0,4.0,79,0.00,,,0.00,,2013-08-22 22:42:00,
2013-08-22 18:53:00,83.0,77.0,30.03,SW,228,0.0,3.0,81,0.00,,,0.00,,2013-08-22 22:53:00,
2013-08-22 19:11:00,82.0,76.0,30.02,NE,54,0.0,1.0,82,0.00,,,0.00,,2013-08-22 23:11:00,
2013-08-22 19:23:00,82.0,77.0,30.03,NE,54,0.0,0.0,84,0.00,,,0.00,,2013-08-22 23:23:00,
2013-08-22 19:53:00,80.0,76.0,30.04,NE,54,0.0,0.0,87,0.00,,,0.00,,2013-08-22 23:53:00,
2013-08-22 20:12:00,80.0,77.0,30.04,NE,54,0.0,1.0,90,0.00,,,0.00,,2013-08-23 00:12:00,
2013-08-22 20:23:00,79.0,75.0,30.06,SE,129,0.0,1.0,88,0.00,,,0.00,,2013-08-23 00:23:00,
2013-08-22 20:42:00,77.0,74.0,30.08,NE,36,2.0,6.0,91,0.01,,,0.01,,2013-08-23 00:42:00,
2013-08-22 20:52:00,74.0,72.0,30.08,SSW,207,0.0,2.0,93,0.02,,,0.02,,2013-08-23 00:52:00,
2013-08-22 21:11:00,74.0,72.0,30.07,ESE,104,0.0,1.0,94,0.02,,,0.02,,2013-08-23 01:11:00,
2013-08-22 21:22:00,73.0,71.0,30.07,SSW,195,0.0,1.0,95,0.02,,,0.02,,2013-08-23 01:22:00,
2013-08-22 21:42:00,73.0,72.0,30.07,SSW,194,0.0,0.0,96,0.01,,,0.02,,2013-08-23 01:42:00,
2013-08-22 21:52:00,73.0,72.0,30.07,SSW,194,0.0,0.0,96,0.00,,,0.02,,2013-08-23 01:52:00,
2013-08-22 22:11:00,73.0,72.0,30.07,SSW,193,0.0,0.0,96,0.00,,,0.02,,2013-08-23 02:11:00,
2013-08-22 22:23:00,73.0,72.0,30.07,SSW,194,0.0,1.0,96,0.00,,,0.02,,2013-08-23 02:23:00,
2013-08-22 22:43:00,73.0,72.0,30.07,SSW,193,0.0,0.0,96,0.00,,,0.02,,2013-08-23 02:43:00,
2013-08-22 22:52:00,73.0,72.0,30.08,SSW,195,0.0,1.0,97,0.00,,,0.02,,2013-08-23 02:52:00,
2013-08-22 23:12:00,73.0,72.0,30.08,SSW,193,0.0,1.0,97,0.00,,,0.02,,2013-08-23 03:12:00,
2013-08-22 23:23:00,73.0,72.0,30.07,SSW,193,0.0,0.0,97,0.00,,,0.02,,2013-08-23 03:23:00,
2013-08-22 23:55:00,73.0,72.0,30.06,SSW,195,0.0,0.0,97,0.00,,,0.02,,2013-08-23 03:55:00,